Time;durP1;ratioP1;P1;durP2;ratioP2;P2;SDS_P1;SDS_P2;PMS_P1;PMS_P2;Temp;Humidity;BMP_temperature;BMP_pressure;BME280_temperature;BME280_humidity;BME280_pressure;Samples;Min_cycle;Max_cycle;Signal;HPM_P1;HPM_P2
2022/07/20 00:01:39;;;;;;;0.50;0.50;;;19.90;90.00;;;;;;5063128;28;20462;-88
2022/07/20 00:04:06;;;;;;;0.60;0.50;;;19.90;90.40;;;;;;5060554;28;20461;-86
2022/07/20 00:06:33;;;;;;;0.93;0.80;;;19.80;90.90;;;;;;5064861;28;21032;-88
2022/07/20 00:11:47;;;;;;;1.23;0.90;;;19.80;91.60;;;;;;5061146;28;20418;-85
2022/07/20 00:14:15;;;;;;;0.73;0.70;;;19.90;91.80;;;;;;5060900;28;20458;-86
2022/07/20 00:16:42;;;;;;;0.90;0.60;;;19.90;91.90;;;;;;5052889;28;20549;-86
2022/07/20 00:19:09;;;;;;;0.83;0.80;;;19.80;92.30;;;;;;5061060;28;20466;-87
2022/07/20 00:21:36;;;;;;;1.20;0.80;;;19.70;93.30;;;;;;5053912;28;20467;-88
2022/07/20 00:24:03;;;;;;;1.03;0.93;;;19.60;93.50;;;;;;5060948;28;20464;-86
2022/07/20 00:26:30;;;;;;;0.97;0.57;;;19.50;93.60;;;;;;5059750;28;20547;-85
2022/07/20 00:28:59;;;;;;;1.20;1.00;;;19.50;94.40;;;;;;5065871;28;20463;-86
2022/07/20 00:31:26;;;;;;;0.90;0.80;;;19.30;94.70;;;;;;5057543;28;20466;-86
2022/07/20 00:33:53;;;;;;;0.80;0.67;;;19.30;94.70;;;;;;5059708;28;20850;-87
2022/07/20 00:36:20;;;;;;;0.60;0.60;;;19.30;94.90;;;;;;5066220;28;20489;-86
2022/07/20 00:38:48;;;;;;;1.07;1.00;;;19.40;94.90;;;;;;5058129;28;20452;-85
2022/07/20 00:41:15;;;;;;;3.43;1.00;;;19.30;94.80;;;;;;5057286;28;20463;-89
2022/07/20 00:44:01;;;;;;;3.57;0.87;;;19.40;94.10;;;;;;5061886;28;20475;-86
2022/07/20 00:46:30;;;;;;;1.13;1.03;;;19.30;94.20;;;;;;5061589;28;20968;-86
2022/07/20 00:48:58;;;;;;;0.63;0.63;;;19.30;93.80;;;;;;5062081;28;20509;-87
2022/07/20 00:51:25;;;;;;;0.80;0.80;;;19.40;93.70;;;;;;5056244;28;20459;-86
2022/07/20 00:53:53;;;;;;;2.20;1.00;;;19.40;93.40;;;;;;5064135;28;21123;-87
2022/07/20 00:56:22;;;;;;;1.13;0.63;;;19.30;93.60;;;;;;5053074;28;20491;-86
2022/07/20 00:58:49;;;;;;;1.10;0.80;;;19.20;93.60;;;;;;5060053;28;20790;-85
2022/07/20 01:01:18;;;;;;;0.67;0.67;;;19.30;93.70;;;;;;5060489;28;20976;-88
2022/07/20 01:03:46;;;;;;;1.57;0.67;;;19.20;93.70;;;;;;5063101;28;20801;-86
2022/07/20 01:06:13;;;;;;;2.23;1.07;;;19.10;94.20;;;;;;5064163;28;20815;-85
2022/07/20 01:08:40;;;;;;;2.00;0.80;;;19.20;94.20;;;;;;5061299;28;20454;-89
2022/07/20 01:11:08;;;;;;;1.70;0.80;;;19.30;94.00;;;;;;5052886;28;20464;-86
2022/07/20 01:13:35;;;;;;;1.23;1.07;;;19.30;93.70;;;;;;5059063;28;20476;-85
2022/07/20 01:16:02;;;;;;;1.10;1.00;;;19.30;93.30;;;;;;5057469;28;20587;-86
2022/07/20 01:18:30;;;;;;;1.50;0.80;;;19.20;93.30;;;;;;5053987;28;20443;-87
2022/07/20 01:21:02;;;;;;;1.50;0.97;;;19.20;93.40;;;;;;5053341;28;20469;-86
2022/07/20 01:23:29;;;;;;;1.73;0.77;;;19.10;93.00;;;;;;5051448;28;20992;-87
2022/07/20 01:25:56;;;;;;;1.23;0.93;;;19.20;92.70;;;;;;5057249;28;20467;-86
2022/07/20 01:28:24;;;;;;;4.03;0.70;;;19.30;92.30;;;;;;5056486;28;20457;-86
2022/07/20 01:30:51;;;;;;;1.87;1.00;;;19.30;91.80;;;;;;5057525;28;20523;-86
2022/07/20 01:33:18;;;;;;;1.57;0.70;;;19.40;91.60;;;;;;5059617;28;20840;-85
2022/07/20 01:35:45;;;;;;;1.50;1.20;;;19.40;91.20;;;;;;5062857;28;20485;-85
2022/07/20 01:38:14;;;;;;;0.67;0.60;;;19.30;91.20;;;;;;5061452;28;20490;-85
2022/07/20 01:40:41;;;;;;;0.80;0.80;;;19.30;91.20;;;;;;5065176;28;20484;-83
2022/07/20 01:43:08;;;;;;;0.83;0.70;;;19.30;91.40;;;;;;5076124;28;20493;-83
2022/07/20 01:45:35;;;;;;;1.00;0.90;;;19.30;91.20;;;;;;5070586;28;20442;-84
2022/07/20 01:48:03;;;;;;;1.23;0.70;;;19.20;91.10;;;;;;5067763;28;20484;-84
2022/07/20 01:50:30;;;;;;;1.07;0.70;;;19.20;91.10;;;;;;5064877;28;20458;-85
2022/07/20 01:52:57;;;;;;;0.80;0.70;;;19.20;91.20;;;;;;5067102;28;20486;-85
2022/07/20 01:55:25;;;;;;;0.70;0.60;;;19.10;91.20;;;;;;5058681;28;20453;-85
2022/07/20 01:57:52;;;;;;;1.33;0.80;;;19.10;91.30;;;;;;5067168;28;20580;-86
2022/07/20 02:00:19;;;;;;;0.70;0.70;;;19.10;91.40;;;;;;5061673;28;20464;-85
2022/07/20 02:02:46;;;;;;;0.70;0.70;;;19.10;91.20;;;;;;5062985;28;20451;-87
2022/07/20 02:05:13;;;;;;;1.00;0.70;;;19.10;91.10;;;;;;5052617;28;20469;-85
2022/07/20 02:07:40;;;;;;;1.93;1.00;;;19.10;91.40;;;;;;5061480;28;20464;-85
2022/07/20 02:10:09;;;;;;;0.90;0.60;;;19.10;91.10;;;;;;5056576;28;20464;-85
2022/07/20 02:12:38;;;;;;;0.80;0.57;;;19.10;91.20;;;;;;5064696;28;20871;-87
2022/07/20 02:15:07;;;;;;;3.23;1.20;;;19.10;91.00;;;;;;5065487;28;20505;-85
2022/07/20 02:17:34;;;;;;;0.70;0.70;;;19.10;91.10;;;;;;5065452;28;20488;-87
2022/07/20 02:20:01;;;;;;;1.97;0.70;;;19.10;90.90;;;;;;5059087;28;21049;-85
2022/07/20 02:22:28;;;;;;;0.97;0.87;;;19.10;91.30;;;;;;5060841;28;20465;-88
2022/07/20 02:24:56;;;;;;;0.70;0.60;;;19.00;91.30;;;;;;5068672;28;20451;-86
2022/07/20 02:27:23;;;;;;;4.53;1.13;;;19.00;91.30;;;;;;5060634;28;20462;-86
2022/07/20 02:29:51;;;;;;;0.80;0.80;;;19.00;91.40;;;;;;5062326;28;20467;-87
2022/07/20 02:32:18;;;;;;;0.70;0.70;;;18.90;91.50;;;;;;5058873;28;20505;-86
2022/07/20 02:34:45;;;;;;;0.83;0.80;;;18.90;91.50;;;;;;5062454;28;20451;-87
2022/07/20 02:37:12;;;;;;;1.27;0.80;;;18.90;91.60;;;;;;5062942;28;20476;-86
2022/07/20 02:39:39;;;;;;;1.20;0.60;;;18.90;91.70;;;;;;5061433;28;20460;-85
2022/07/20 02:42:07;;;;;;;1.70;0.80;;;18.90;91.60;;;;;;5067545;28;20814;-87
2022/07/20 02:44:33;;;;;;;2.63;0.70;;;19.00;91.30;;;;;;5059152;28;20511;-87
2022/07/20 02:47:02;;;;;;;1.10;0.80;;;18.90;91.60;;;;;;5057155;28;20471;-85
2022/07/20 02:49:29;;;;;;;1.07;0.80;;;18.80;92.30;;;;;;5058200;28;20476;-86
2022/07/20 02:51:56;;;;;;;5.50;0.90;;;18.80;91.90;;;;;;5065360;28;20467;-87
2022/07/20 02:54:23;;;;;;;0.93;0.83;;;18.80;91.60;;;;;;5054042;28;20549;-88
2022/07/20 02:56:50;;;;;;;2.37;0.97;;;18.90;91.50;;;;;;5058942;28;20485;-86
2022/07/20 02:59:17;;;;;;;1.00;0.77;;;18.90;91.30;;;;;;5059844;28;20457;-87
2022/07/20 03:01:44;;;;;;;1.37;0.90;;;19.00;91.40;;;;;;5064045;28;20456;-87
2022/07/20 03:04:13;;;;;;;1.37;0.87;;;19.00;91.20;;;;;;5059722;28;20832;-87
2022/07/20 03:06:40;;;;;;;2.80;0.87;;;19.10;90.70;;;;;;5059511;28;20441;-86
2022/07/20 03:09:07;;;;;;;1.03;0.60;;;19.10;90.40;;;;;;5054270;28;20499;-85
2022/07/20 03:11:34;;;;;;;0.90;0.70;;;19.20;90.30;;;;;;5064826;28;20441;-87
2022/07/20 03:14:01;;;;;;;3.10;0.80;;;19.20;90.00;;;;;;5060200;28;20466;-87
2022/07/20 03:16:28;;;;;;;2.10;0.90;;;19.20;89.30;;;;;;5061313;28;20540;-86
2022/07/20 03:18:55;;;;;;;1.10;1.00;;;19.20;89.40;;;;;;5063916;28;20451;-86
2022/07/20 03:21:25;;;;;;;1.10;0.70;;;19.20;89.30;;;;;;5057026;28;20954;-86
2022/07/20 03:23:52;;;;;;;0.70;0.70;;;19.10;89.20;;;;;;5057084;28;20488;-86
2022/07/20 03:26:21;;;;;;;2.73;1.63;;;19.20;89.00;;;;;;5062383;28;21103;-86
2022/07/20 03:28:48;;;;;;;0.90;0.90;;;19.20;88.80;;;;;;5066628;28;20527;-89
2022/07/20 03:31:15;;;;;;;1.00;0.70;;;19.30;88.00;;;;;;5056321;28;20439;-86
2022/07/20 03:33:42;;;;;;;0.87;0.87;;;19.30;88.40;;;;;;5061878;28;20463;-86
2022/07/20 03:36:09;;;;;;;1.10;1.03;;;19.20;88.70;;;;;;5058133;28;20463;-86
2022/07/20 03:38:38;;;;;;;1.90;1.00;;;19.10;89.20;;;;;;5060395;28;20483;-86
2022/07/20 03:41:05;;;;;;;12.07;1.43;;;19.10;90.10;;;;;;5060800;28;20477;-86
2022/07/20 03:43:32;;;;;;;3.07;0.97;;;19.00;90.00;;;;;;5054036;28;20541;-85
2022/07/20 03:45:59;;;;;;;0.80;0.70;;;19.00;90.10;;;;;;5057313;28;20465;-85
2022/07/20 03:48:26;;;;;;;0.60;0.53;;;19.00;90.30;;;;;;5057339;28;20461;-85
2022/07/20 03:50:53;;;;;;;0.63;0.60;;;19.00;89.90;;;;;;5056137;28;20991;-86
2022/07/20 03:53:20;;;;;;;1.47;0.70;;;19.00;90.20;;;;;;5056988;28;20482;-87
2022/07/20 03:55:48;;;;;;;0.70;0.70;;;18.90;90.40;;;;;;5060705;28;20475;-86
2022/07/20 03:58:15;;;;;;;1.53;1.20;;;19.00;90.20;;;;;;5054812;28;20483;-86
2022/07/20 04:00:43;;;;;;;1.03;0.77;;;19.10;90.50;;;;;;5057329;28;20444;-88
2022/07/20 04:03:10;;;;;;;0.70;0.70;;;19.10;90.50;;;;;;5052227;28;20453;-86
2022/07/20 04:05:37;;;;;;;1.30;0.83;;;19.10;90.80;;;;;;5059753;28;20471;-86
2022/07/20 04:08:04;;;;;;;1.23;0.87;;;19.10;90.60;;;;;;5056372;28;20466;-86
2022/07/20 04:10:31;;;;;;;0.87;0.87;;;19.10;90.40;;;;;;5052332;28;20468;-88
2022/07/20 04:12:59;;;;;;;1.40;0.70;;;19.10;90.60;;;;;;5062717;28;20468;-86
2022/07/20 04:15:26;;;;;;;1.10;0.80;;;19.20;90.60;;;;;;5053589;28;20561;-86
2022/07/20 04:17:53;;;;;;;4.60;1.20;;;19.20;90.60;;;;;;5051435;28;20814;-86
2022/07/20 04:20:21;;;;;;;1.77;1.10;;;19.20;90.50;;;;;;5061671;28;20540;-86
2022/07/20 04:22:48;;;;;;;1.40;1.10;;;19.20;90.90;;;;;;5060692;28;20465;-86
2022/07/20 04:25:15;;;;;;;1.30;1.20;;;19.20;90.70;;;;;;5057954;28;20467;-86
2022/07/20 04:27:44;;;;;;;0.80;0.80;;;19.30;91.00;;;;;;5054033;28;20471;-86
2022/07/20 04:30:13;;;;;;;0.70;0.60;;;19.30;90.90;;;;;;5061928;28;21216;-86
2022/07/20 04:32:40;;;;;;;1.73;1.07;;;19.30;91.90;;;;;;5062903;28;20459;-86
2022/07/20 04:35:09;;;;;;;1.17;0.97;;;19.30;92.40;;;;;;5064341;28;20964;-88
2022/07/20 04:37:36;;;;;;;0.83;0.67;;;19.40;91.30;;;;;;5056706;28;20840;-88
2022/07/20 04:40:04;;;;;;;1.00;0.80;;;19.50;90.80;;;;;;5057489;28;21244;-87
2022/07/20 04:42:31;;;;;;;1.10;1.10;;;19.70;90.50;;;;;;5059465;28;21954;-86
2022/07/20 04:44:58;;;;;;;1.00;0.90;;;19.70;89.80;;;;;;5063182;28;20513;-86
2022/07/20 04:47:26;;;;;;;8.00;1.60;;;19.80;90.10;;;;;;5060399;28;20467;-86
2022/07/20 04:49:53;;;;;;;0.97;0.97;;;19.90;89.20;;;;;;5061559;28;20473;-87
2022/07/20 04:52:20;;;;;;;2.67;1.20;;;20.00;89.30;;;;;;5060266;28;20466;-87
2022/07/20 04:54:47;;;;;;;0.73;0.70;;;20.20;89.30;;;;;;5057592;28;20465;-86
2022/07/20 04:57:14;;;;;;;0.87;0.87;;;20.30;88.30;;;;;;5063958;28;20507;-89
2022/07/20 04:59:41;;;;;;;3.90;0.90;;;20.50;86.70;;;;;;5052393;28;20941;-86
2022/07/20 05:02:08;;;;;;;0.80;0.80;;;20.60;87.10;;;;;;5060643;28;20542;-85
2022/07/20 05:04:37;;;;;;;1.37;0.97;;;20.50;86.10;;;;;;5059559;28;20469;-86
2022/07/20 05:07:04;;;;;;;1.07;0.93;;;20.60;86.30;;;;;;5058093;28;20534;-86
2022/07/20 05:09:31;;;;;;;1.43;0.80;;;20.70;86.80;;;;;;5060242;28;20484;-86
2022/07/20 05:11:58;;;;;;;0.90;0.90;;;20.70;86.20;;;;;;5053564;28;20471;-85
2022/07/20 05:14:25;;;;;;;2.03;1.63;;;20.80;85.90;;;;;;5053700;28;20523;-85
2022/07/20 05:16:52;;;;;;;1.73;1.37;;;20.80;86.30;;;;;;5055023;28;20891;-88
2022/07/20 05:19:19;;;;;;;1.40;1.00;;;20.90;85.70;;;;;;5067750;28;20509;-85
2022/07/20 05:21:47;;;;;;;0.93;0.83;;;21.00;85.50;;;;;;5068429;28;20448;-85
2022/07/20 05:24:14;;;;;;;1.23;0.70;;;21.20;85.00;;;;;;5075099;28;20958;-86
2022/07/20 05:26:41;;;;;;;2.60;1.20;;;21.30;85.60;;;;;;5070788;28;20822;-84
2022/07/20 05:29:08;;;;;;;3.80;0.93;;;21.50;84.90;;;;;;5064791;28;20501;-85
2022/07/20 05:31:35;;;;;;;1.00;0.87;;;21.60;84.40;;;;;;5062656;28;20466;-85
2022/07/20 05:34:02;;;;;;;2.00;0.90;;;21.70;82.50;;;;;;5066628;28;20497;-85
2022/07/20 05:36:29;;;;;;;0.80;0.80;;;21.60;83.00;;;;;;5060405;28;20455;-85
2022/07/20 05:38:58;;;;;;;2.13;1.00;;;21.80;85.10;;;;;;5061171;28;21033;-84
2022/07/20 05:41:25;;;;;;;1.90;1.20;;;21.90;82.10;;;;;;5067249;28;20500;-84
2022/07/20 05:43:52;;;;;;;1.10;1.00;;;22.00;81.80;;;;;;5055940;28;20465;-84
2022/07/20 05:46:19;;;;;;;0.80;0.80;;;22.00;84.20;;;;;;5063072;28;20464;-85
2022/07/20 05:48:46;;;;;;;1.50;0.93;;;22.10;83.90;;;;;;5062253;28;20486;-84
2022/07/20 05:51:13;;;;;;;3.87;0.70;;;22.10;81.90;;;;;;5058310;28;20464;-85
2022/07/20 05:53:40;;;;;;;1.97;1.43;;;22.20;84.50;;;;;;5047786;28;20472;-86
2022/07/20 05:56:09;;;;;;;1.10;0.80;;;22.30;82.40;;;;;;5060521;28;20460;-85
2022/07/20 05:58:36;;;;;;;1.07;1.00;;;22.30;81.70;;;;;;5061844;28;20495;-85
2022/07/20 06:01:02;;;;;;;2.10;0.73;;;22.50;81.00;;;;;;5058151;28;20517;-85
2022/07/20 06:03:29;;;;;;;1.10;0.70;;;22.60;82.10;;;;;;5066366;28;20918;-84
2022/07/20 06:05:56;;;;;;;1.20;1.10;;;22.90;82.00;;;;;;5056362;28;20472;-92
2022/07/20 06:08:24;;;;;;;1.70;0.83;;;22.90;83.20;;;;;;5061822;28;20863;-83
2022/07/20 06:10:51;;;;;;;3.80;0.90;;;23.00;80.00;;;;;;5056389;28;20456;-83
2022/07/20 06:13:19;;;;;;;1.27;1.17;;;23.10;80.50;;;;;;5052021;28;20464;-84
2022/07/20 06:15:46;;;;;;;1.90;1.53;;;23.20;80.00;;;;;;5058989;28;20492;-84
2022/07/20 06:18:13;;;;;;;1.07;0.80;;;23.20;78.60;;;;;;5053457;28;20487;-84
2022/07/20 06:20:40;;;;;;;1.40;1.00;;;23.30;79.70;;;;;;5054122;28;20468;-84
2022/07/20 06:23:07;;;;;;;1.23;1.13;;;23.50;82.60;;;;;;5052040;28;20502;-85
2022/07/20 06:25:34;;;;;;;1.13;1.03;;;23.50;79.20;;;;;;5060434;28;20590;-84
2022/07/20 06:28:01;;;;;;;1.10;1.00;;;23.60;81.00;;;;;;5054477;28;21098;-85
2022/07/20 06:30:30;;;;;;;1.77;1.00;;;23.60;78.20;;;;;;5068301;28;20462;-85
2022/07/20 06:32:57;;;;;;;1.43;1.00;;;23.60;79.30;;;;;;5061581;28;20519;-84
2022/07/20 06:35:24;;;;;;;0.70;0.70;;;24.00;78.10;;;;;;5060136;28;21138;-86
2022/07/20 06:37:51;;;;;;;1.07;0.90;;;24.10;79.60;;;;;;5059752;28;20475;-87
2022/07/20 06:40:18;;;;;;;3.30;1.00;;;24.20;77.70;;;;;;5057212;28;20859;-85
2022/07/20 06:42:45;;;;;;;2.40;1.10;;;24.30;76.50;;;;;;5059422;28;20460;-87
2022/07/20 06:45:12;;;;;;;1.47;1.13;;;24.50;79.20;;;;;;5059288;28;21060;-85
2022/07/20 06:47:41;;;;;;;3.83;1.33;;;24.60;74.30;;;;;;5057254;28;20484;-87
2022/07/20 06:50:09;;;;;;;1.20;1.10;;;24.70;75.80;;;;;;5065886;28;20460;-84
2022/07/20 06:52:36;;;;;;;5.40;2.23;;;24.70;74.30;;;;;;5063442;28;20465;-87
2022/07/20 06:55:04;;;;;;;1.10;0.93;;;24.50;75.60;;;;;;5058799;28;21113;-85
2022/07/20 06:57:31;;;;;;;1.47;0.87;;;24.60;75.40;;;;;;5059924;28;20451;-84
2022/07/20 06:59:58;;;;;;;1.40;1.17;;;25.00;75.50;;;;;;5058509;28;20488;-86
2022/07/20 07:02:25;;;;;;;1.17;1.07;;;25.20;73.90;;;;;;5060642;28;20460;-86
2022/07/20 07:04:53;;;;;;;1.47;1.37;;;25.20;74.50;;;;;;5061179;28;20988;-86
2022/07/20 07:07:20;;;;;;;4.20;1.30;;;25.40;76.40;;;;;;5066950;28;20808;-84
2022/07/20 07:09:47;;;;;;;3.80;1.20;;;25.40;73.30;;;;;;5068121;28;20493;-83
2022/07/20 07:12:14;;;;;;;1.00;0.90;;;25.50;72.00;;;;;;5061325;28;20508;-85
2022/07/20 07:14:42;;;;;;;1.30;1.20;;;25.70;73.80;;;;;;5065232;28;20460;-85
2022/07/20 07:17:09;;;;;;;1.80;0.87;;;25.90;71.80;;;;;;5067169;28;20491;-85
2022/07/20 07:19:36;;;;;;;2.33;1.33;;;26.10;72.30;;;;;;5064500;28;20475;-85
2022/07/20 07:22:05;;;;;;;1.03;1.03;;;26.40;70.00;;;;;;5062480;28;20467;-87
2022/07/20 07:24:32;;;;;;;2.30;0.97;;;26.60;71.00;;;;;;5067320;28;21266;-88
2022/07/20 07:26:59;;;;;;;2.07;1.97;;;26.50;70.80;;;;;;5065168;28;20483;-87
2022/07/20 07:29:27;;;;;;;2.00;0.90;;;26.60;69.10;;;;;;5059381;28;20889;-87
2022/07/20 07:31:58;;;;;;;1.83;1.27;;;26.70;70.60;;;;;;5062481;28;20463;-89
2022/07/20 07:34:28;;;;;;;2.77;0.97;;;26.80;67.10;;;;;;5058579;28;20584;-86
2022/07/20 07:36:55;;;;;;;1.40;1.00;;;27.00;68.90;;;;;;5057711;28;20468;-89
2022/07/20 07:39:24;;;;;;;1.73;0.90;;;27.00;67.50;;;;;;5057231;28;20479;-86
2022/07/20 07:41:51;;;;;;;0.87;0.80;;;27.10;71.50;;;;;;5059297;28;20802;-86
2022/07/20 07:44:18;;;;;;;1.10;0.90;;;27.30;67.00;;;;;;5057348;28;20831;-88
2022/07/20 07:46:45;;;;;;;1.10;1.00;;;27.40;66.10;;;;;;5061098;28;20487;-88
2022/07/20 07:49:12;;;;;;;1.50;1.13;;;27.70;69.50;;;;;;5060491;28;20468;-89
2022/07/20 07:51:40;;;;;;;1.57;1.10;;;27.80;65.50;;;;;;5060129;28;20533;-87
2022/07/20 07:54:07;;;;;;;1.20;1.00;;;27.90;65.30;;;;;;5055999;28;20558;-89
2022/07/20 07:56:35;;;;;;;2.50;1.30;;;27.60;64.30;;;;;;5062633;28;20455;-86
2022/07/20 07:59:03;;;;;;;5.27;1.40;;;27.70;64.80;;;;;;5056177;28;20538;-87
2022/07/20 08:01:31;;;;;;;1.00;1.00;;;27.80;65.10;;;;;;5065120;28;20497;-87
2022/07/20 08:03:58;;;;;;;2.73;0.80;;;27.80;63.40;;;;;;5061363;28;21159;-90
2022/07/20 08:06:25;;;;;;;1.00;0.90;;;27.70;64.20;;;;;;5060736;28;20505;-87
2022/07/20 08:08:52;;;;;;;1.53;1.00;;;27.70;64.10;;;;;;5062968;28;20499;-87
2022/07/20 08:11:19;;;;;;;3.57;1.37;;;27.80;62.20;;;;;;5057745;28;20456;-87
2022/07/20 08:13:47;;;;;;;1.43;1.10;;;27.70;62.60;;;;;;5059704;28;20927;-87
2022/07/20 08:16:14;;;;;;;2.17;1.20;;;27.80;63.70;;;;;;5072584;28;20474;-84
2022/07/20 08:18:41;;;;;;;1.43;1.23;;;27.70;61.50;;;;;;5078519;28;20994;-87
2022/07/20 08:21:08;;;;;;;1.70;1.00;;;27.70;61.70;;;;;;5069372;28;20463;-89
2022/07/20 08:23:35;;;;;;;1.00;0.90;;;28.00;64.20;;;;;;5065968;28;20972;-89
2022/07/20 08:26:05;;;;;;;0.80;0.80;;;28.20;63.10;;;;;;5066856;28;20533;-86
2022/07/20 08:28:32;;;;;;;2.03;1.30;;;28.30;62.30;;;;;;5058451;28;20908;-86
2022/07/20 08:31:01;;;;;;;1.37;1.27;;;28.50;61.60;;;;;;5059570;28;20509;-86
2022/07/20 08:33:28;;;;;;;1.03;1.00;;;28.60;60.70;;;;;;5061585;28;20563;-85
2022/07/20 08:35:55;;;;;;;1.47;1.20;;;28.60;59.60;;;;;;5064446;28;20558;-85
2022/07/20 08:38:22;;;;;;;1.80;1.57;;;28.40;58.50;;;;;;5064165;28;20466;-89
2022/07/20 08:40:49;;;;;;;1.27;1.17;;;28.70;62.80;;;;;;5062179;28;20459;-86
2022/07/20 08:43:17;;;;;;;1.13;1.10;;;28.90;59.80;;;;;;5060783;28;20456;-85
2022/07/20 08:45:47;;;;;;;2.40;1.00;;;29.00;59.90;;;;;;5054067;28;20483;-86
2022/07/20 08:48:19;;;;;;;3.73;0.97;;;29.20;59.40;;;;;;5053201;28;20479;-86
2022/07/20 08:50:47;;;;;;;1.10;1.00;;;29.40;59.80;;;;;;5057432;28;21002;-84
2022/07/20 08:53:14;;;;;;;1.83;1.10;;;29.30;57.50;;;;;;5062460;28;20459;-84
2022/07/20 08:55:41;;;;;;;0.90;0.90;;;29.30;57.30;;;;;;5060496;28;20469;-88
2022/07/20 08:58:10;;;;;;;0.90;0.90;;;29.20;58.50;;;;;;5057494;28;21123;-84
2022/07/20 09:00:37;;;;;;;1.27;1.17;;;29.40;55.90;;;;;;5059351;28;20502;-86
2022/07/20 09:03:07;;;;;;;0.97;0.90;;;29.40;57.40;;;;;;5061455;28;20460;-87
2022/07/20 09:05:38;;;;;;;1.10;0.97;;;29.50;57.70;;;;;;5061914;28;20850;-88
2022/07/20 09:08:07;;;;;;;2.90;0.90;;;29.80;57.20;;;;;;5055956;28;21463;-88
2022/07/20 09:10:35;;;;;;;2.63;0.90;;;29.80;56.00;;;;;;5061230;28;20468;-87
2022/07/20 09:13:04;;;;;;;2.70;1.37;;;30.00;58.60;;;;;;5063135;28;20464;-86
2022/07/20 09:15:36;;;;;;;1.03;1.03;;;29.90;55.30;;;;;;5060702;28;21136;-83
2022/07/20 09:18:13;;;;;;;6.37;1.20;;;29.80;55.80;;;;;;5051275;28;20539;-83
2022/07/20 09:20:43;;;;;;;1.93;1.20;;;29.90;56.50;;;;;;5055796;28;20924;-83
2022/07/20 09:23:13;;;;;;;2.40;1.07;;;30.10;55.10;;;;;;5063170;28;20514;-84
2022/07/20 09:25:57;;;;;;;1.73;1.23;;;30.10;56.70;;;;;;5058268;28;20826;-85
2022/07/20 09:28:36;;;;;;;1.57;1.10;;;30.10;56.00;;;;;;5062837;28;20546;-83
2022/07/20 09:31:04;;;;;;;1.30;1.13;;;30.10;56.80;;;;;;5059966;28;20516;-83
2022/07/20 09:33:32;;;;;;;1.10;0.90;;;30.30;55.90;;;;;;5060649;28;20447;-87
2022/07/20 09:36:04;;;;;;;1.37;1.27;;;30.40;56.60;;;;;;5057893;28;20951;-84
2022/07/20 09:38:34;;;;;;;1.20;0.80;;;30.70;55.50;;;;;;5059095;28;20540;-85
2022/07/20 09:41:03;;;;;;;2.47;1.33;;;30.80;57.00;;;;;;5063947;28;20464;-84
2022/07/20 09:43:32;;;;;;;2.00;1.03;;;31.10;54.70;;;;;;5062566;28;20463;-86
2022/07/20 09:46:13;;;;;;;2.30;1.33;;;31.10;53.90;;;;;;5067512;28;20521;-85
2022/07/20 09:48:42;;;;;;;2.70;2.30;;;30.80;53.40;;;;;;5058471;28;20467;-84
2022/07/20 09:51:22;;;;;;;1.00;0.93;;;30.90;54.30;;;;;;5059779;28;20537;-84
2022/07/20 09:53:49;;;;;;;2.67;1.03;;;31.10;54.30;;;;;;5057502;28;20451;-83
2022/07/20 09:56:17;;;;;;;1.20;1.10;;;31.30;56.10;;;;;;5059242;28;20463;-84
2022/07/20 09:58:47;;;;;;;1.13;1.03;;;31.00;54.30;;;;;;5062576;28;20456;-84
2022/07/20 10:01:18;;;;;;;1.93;1.20;;;31.00;55.00;;;;;;5060834;28;20486;-85
2022/07/20 10:03:47;;;;;;;0.93;0.93;;;31.10;52.50;;;;;;5060117;28;20451;-84
2022/07/20 10:06:15;;;;;;;7.20;2.03;;;31.20;55.70;;;;;;5064182;28;20542;-83
2022/07/20 10:08:44;;;;;;;1.97;1.13;;;31.40;55.60;;;;;;5064952;28;20464;-84
2022/07/20 10:11:11;;;;;;;1.20;1.10;;;31.40;51.80;;;;;;5059519;28;20480;-87
2022/07/20 10:13:40;;;;;;;1.00;0.90;;;31.50;55.70;;;;;;5059871;28;20542;-84
2022/07/20 10:16:24;;;;;;;1.10;1.00;;;31.50;54.10;;;;;;5062604;28;20480;-84
2022/07/20 10:18:53;;;;;;;1.00;0.90;;;31.40;56.10;;;;;;5067966;28;20436;-85
2022/07/20 10:21:35;;;;;;;1.73;1.10;;;31.40;53.70;;;;;;5055950;28;20936;-84
2022/07/20 10:24:30;;;;;;;1.43;1.20;;;31.40;52.40;;;;;;5063769;28;20512;-84
2022/07/20 10:27:24;;;;;;;3.47;1.20;;;31.70;53.20;;;;;;5031496;28;20448;-84
2022/07/20 10:29:53;;;;;;;1.10;1.00;;;31.80;54.40;;;;;;5061079;28;20865;-84
2022/07/20 10:32:23;;;;;;;3.23;1.30;;;32.10;52.50;;;;;;5064515;28;20464;-84
2022/07/20 10:34:52;;;;;;;1.30;1.20;;;32.00;53.40;;;;;;5061674;28;20472;-88
2022/07/20 10:37:30;;;;;;;1.23;1.07;;;32.20;52.90;;;;;;5063595;28;20881;-91
2022/07/20 10:40:13;;;;;;;1.27;1.17;;;32.10;56.10;;;;;;5067657;28;20487;-86
2022/07/20 10:42:42;;;;;;;2.70;1.27;;;32.10;51.40;;;;;;5067922;28;20509;-86
2022/07/20 10:45:32;;;;;;;3.50;1.23;;;31.90;51.90;;;;;;5067745;28;20463;-90
2022/07/20 10:48:18;;;;;;;1.97;1.43;;;31.80;52.00;;;;;;5061573;28;20521;-86
2022/07/20 10:50:51;;;;;;;0.97;0.90;;;31.90;51.50;;;;;;5060982;28;20580;-86
2022/07/20 10:53:35;;;;;;;1.50;1.40;;;32.10;51.60;;;;;;5057827;28;20463;-85
2022/07/20 10:56:06;;;;;;;1.20;1.20;;;32.00;52.90;;;;;;5057527;28;20451;-85
2022/07/20 10:58:36;;;;;;;1.30;1.00;;;32.00;49.70;;;;;;5066904;28;20448;-86
2022/07/20 11:01:05;;;;;;;1.37;1.27;;;32.10;49.30;;;;;;5064195;28;20484;-86
2022/07/20 11:03:36;;;;;;;1.30;1.07;;;32.10;51.70;;;;;;5064263;28;20544;-86
2022/07/20 11:06:10;;;;;;;1.10;1.00;;;32.50;52.80;;;;;;5061976;28;20557;-89
2022/07/20 11:08:39;;;;;;;1.23;1.07;;;32.50;50.40;;;;;;5060872;28;20495;-87
2022/07/20 11:11:13;;;;;;;2.60;1.50;;;32.70;50.30;;;;;;5072087;28;20550;-86
2022/07/20 11:13:40;;;;;;;3.17;1.50;;;32.90;50.10;;;;;;5067936;28;20467;-87
2022/07/20 11:16:08;;;;;;;2.30;1.23;;;33.00;50.50;;;;;;5065547;28;20467;-87
2022/07/20 11:18:36;;;;;;;5.60;1.20;;;33.00;50.70;;;;;;5054995;28;20464;-87
2022/07/20 11:21:08;;;;;;;1.03;1.03;;;32.90;48.40;;;;;;5060012;28;20491;-87
2022/07/20 11:23:45;;;;;;;1.00;1.00;;;32.50;47.80;;;;;;5052410;28;20884;-86
2022/07/20 11:26:15;;;;;;;1.57;1.47;;;32.50;49.40;;;;;;5054492;28;20456;-88
2022/07/20 11:28:46;;;;;;;1.00;1.00;;;32.80;49.60;;;;;;5053604;28;20456;-87
2022/07/20 11:31:13;;;;;;;0.80;0.80;;;33.00;48.80;;;;;;5065458;28;20914;-88
2022/07/20 11:33:43;;;;;;;1.77;1.03;;;32.90;48.10;;;;;;5064211;28;20471;-87
2022/07/20 11:36:13;;;;;;;1.00;1.00;;;32.60;48.00;;;;;;5063525;28;20514;-87
2022/07/20 11:38:41;;;;;;;1.17;1.07;;;32.50;46.70;;;;;;5062113;28;20487;-88
2022/07/20 11:41:12;;;;;;;1.07;1.07;;;32.80;48.00;;;;;;5059315;28;20482;-89
2022/07/20 11:43:40;;;;;;;1.57;1.47;;;32.80;47.00;;;;;;5066536;28;20448;-87
2022/07/20 11:46:16;;;;;;;1.00;1.00;;;32.90;46.40;;;;;;5061174;28;20544;-88
2022/07/20 11:48:45;;;;;;;1.27;1.17;;;32.70;46.00;;;;;;5060129;28;20459;-89
2022/07/20 11:51:16;;;;;;;1.00;1.00;;;32.90;47.60;;;;;;5064906;28;20467;-89
2022/07/20 11:53:44;;;;;;;1.13;1.13;;;33.00;46.60;;;;;;5060787;28;20459;-88
2022/07/20 11:56:17;;;;;;;0.90;0.80;;;33.20;47.50;;;;;;5057343;28;20488;-87
2022/07/20 11:58:48;;;;;;;0.87;0.83;;;33.20;46.90;;;;;;5057510;28;20464;-86
2022/07/20 12:01:20;;;;;;;1.33;1.23;;;33.10;47.30;;;;;;5057394;28;20504;-88
2022/07/20 12:03:53;;;;;;;1.27;1.17;;;33.20;47.30;;;;;;5052665;28;20444;-88
2022/07/20 12:06:20;;;;;;;1.50;1.40;;;33.20;46.40;;;;;;5052987;28;20787;-88
2022/07/20 12:09:12;;;;;;;1.30;1.00;;;33.30;48.90;;;;;;5053547;28;20461;-87
2022/07/20 12:11:55;;;;;;;2.60;1.60;;;33.30;46.10;;;;;;5065551;28;21311;-83
2022/07/20 12:14:35;;;;;;;0.90;0.90;;;33.20;45.40;;;;;;5065172;28;20893;-87
2022/07/20 12:17:12;;;;;;;3.07;0.83;;;33.50;48.10;;;;;;5062551;28;20519;-85
2022/07/20 12:19:40;;;;;;;1.83;1.73;;;33.70;46.70;;;;;;5052082;28;20947;-86
2022/07/20 12:22:07;;;;;;;0.80;0.80;;;33.90;46.50;;;;;;5053927;28;20460;-89
2022/07/20 12:24:54;;;;;;;1.90;1.13;;;34.00;44.40;;;;;;5056251;28;20459;-84
2022/07/20 12:27:26;;;;;;;0.90;0.80;;;34.00;43.50;;;;;;5058548;28;20477;-86
2022/07/20 12:30:01;;;;;;;1.20;1.10;;;34.10;43.10;;;;;;5054810;28;20530;-88
2022/07/20 12:32:35;;;;;;;0.90;0.90;;;34.10;45.70;;;;;;5053992;28;20865;-84
2022/07/20 12:35:07;;;;;;;1.20;1.10;;;34.10;46.40;;;;;;5055082;28;20513;-86
2022/07/20 12:37:49;;;;;;;2.07;1.30;;;34.10;46.20;;;;;;5060289;28;20469;-83
2022/07/20 12:40:38;;;;;;;2.80;1.37;;;34.20;45.10;;;;;;5053029;28;20475;-83
2022/07/20 12:43:06;;;;;;;1.20;1.10;;;34.10;43.40;;;;;;5063260;28;20556;-84
2022/07/20 12:45:34;;;;;;;1.10;0.93;;;34.00;44.00;;;;;;5063174;28;20464;-84
2022/07/20 12:48:01;;;;;;;1.40;1.17;;;34.30;46.90;;;;;;5063841;28;20459;-84
2022/07/20 12:50:28;;;;;;;1.40;1.30;;;34.20;42.90;;;;;;5065644;28;20514;-86
2022/07/20 12:52:55;;;;;;;1.67;1.57;;;34.20;44.50;;;;;;5063256;28;20522;-86
2022/07/20 12:55:22;;;;;;;0.90;0.90;;;34.40;44.20;;;;;;5061464;28;21039;-84
2022/07/20 12:57:49;;;;;;;2.23;0.93;;;34.20;43.30;;;;;;5058441;28;21193;-83
2022/07/20 13:00:17;;;;;;;1.73;0.83;;;34.00;46.70;;;;;;5058838;28;20483;-84